createdAt,value
2018-09-25T00:00:32.881Z,14.60
2018-09-25T00:03:06.656Z,14.60
2018-09-25T00:05:40.338Z,14.50
2018-09-25T00:08:14.020Z,14.50
2018-09-25T00:10:47.767Z,14.50
2018-09-25T00:13:21.368Z,14.50
2018-09-25T00:15:55.080Z,14.50
2018-09-25T00:18:28.778Z,14.50
2018-09-25T00:21:02.402Z,14.40
2018-09-25T00:23:36.121Z,14.40
2018-09-25T00:26:09.846Z,14.40
2018-09-25T00:28:43.500Z,14.40
2018-09-25T00:31:17.131Z,14.30
2018-09-25T00:33:50.724Z,14.30
2018-09-25T00:36:24.335Z,14.30
2018-09-25T00:38:57.900Z,14.30
2018-09-25T00:41:31.645Z,14.30
2018-09-25T00:44:05.351Z,14.30
2018-09-25T00:46:39.069Z,14.30
2018-09-25T00:49:12.704Z,14.20
2018-09-25T00:51:46.382Z,14.20
2018-09-25T00:54:20.108Z,14.20
2018-09-25T00:56:53.833Z,14.20
2018-09-25T00:59:27.378Z,14.20
2018-09-25T01:02:01.216Z,14.20
2018-09-25T01:04:34.901Z,14.20
2018-09-25T01:07:08.624Z,14.20
2018-09-25T01:09:42.308Z,14.20
2018-09-25T01:12:15.960Z,14.20
2018-09-25T01:14:49.520Z,14.20
2018-09-25T01:17:23.229Z,14.10
2018-09-25T01:19:56.949Z,14.10
2018-09-25T01:22:30.652Z,14.00
2018-09-25T01:25:04.329Z,14.10
2018-09-25T01:27:37.973Z,14.00
2018-09-25T01:30:11.644Z,14.00
2018-09-25T01:32:45.332Z,14.00
2018-09-25T01:35:18.829Z,14.00
2018-09-25T01:37:52.533Z,13.90
2018-09-25T01:40:26.186Z,13.90
2018-09-25T01:42:59.838Z,13.90
2018-09-25T01:45:33.544Z,13.90
2018-09-25T01:48:07.308Z,13.90
2018-09-25T01:50:40.967Z,13.90
2018-09-25T01:53:14.724Z,13.90
2018-09-25T01:55:48.276Z,13.90
2018-09-25T01:58:21.780Z,13.90
2018-09-25T02:00:55.504Z,13.80
2018-09-25T02:03:29.106Z,13.80
2018-09-25T02:06:02.830Z,13.80
2018-09-25T02:08:36.539Z,13.80
2018-09-25T02:11:10.193Z,13.80
2018-09-25T02:13:43.878Z,13.80
2018-09-25T02:16:17.453Z,13.70
2018-09-25T02:18:51.148Z,13.80
2018-09-25T02:21:24.836Z,13.80
2018-09-25T02:23:58.384Z,13.70
2018-09-25T02:26:32.144Z,13.70
2018-09-25T02:29:05.852Z,13.70
2018-09-25T02:31:39.558Z,13.70
2018-09-25T02:34:13.034Z,13.70
2018-09-25T02:36:46.659Z,13.70
2018-09-25T02:39:20.365Z,13.60
2018-09-25T02:41:54.068Z,13.60
2018-09-25T02:44:27.740Z,13.60
2018-09-25T02:47:01.460Z,13.60
2018-09-25T02:49:35.188Z,13.60
2018-09-25T02:52:08.885Z,13.60
2018-09-25T02:54:42.525Z,13.50
2018-09-25T02:57:16.308Z,13.50
2018-09-25T02:59:49.972Z,13.50
2018-09-25T03:02:23.597Z,13.50
2018-09-25T03:04:57.285Z,13.50
2018-09-25T03:07:30.999Z,13.50
2018-09-25T03:10:04.628Z,13.40
2018-09-25T03:12:38.334Z,13.40
2018-09-25T03:15:12.193Z,13.40
2018-09-25T03:17:45.872Z,13.40
2018-09-25T03:20:19.572Z,13.40
2018-09-25T03:22:53.145Z,13.30
2018-09-25T03:25:26.544Z,13.40
2018-09-25T03:28:00.209Z,13.30
2018-09-25T03:30:33.861Z,13.30
2018-09-25T03:33:07.620Z,13.20
2018-09-25T03:35:41.366Z,13.30
2018-09-25T03:38:15.071Z,13.20
2018-09-25T03:40:48.857Z,13.20
2018-09-25T03:43:22.660Z,13.20
2018-09-25T03:45:56.188Z,13.20
2018-09-25T03:48:29.838Z,13.20
2018-09-25T03:51:03.470Z,13.10
2018-09-25T03:53:37.124Z,13.20
2018-09-25T03:56:10.749Z,13.20
2018-09-25T03:58:44.333Z,13.20
2018-09-25T04:01:18.030Z,13.10
2018-09-25T04:03:51.673Z,13.10
2018-09-25T04:06:25.483Z,13.10
2018-09-25T04:08:59.175Z,13.10
2018-09-25T04:11:32.931Z,13.10
2018-09-25T04:14:06.647Z,13.10
2018-09-25T04:16:40.381Z,13.10
2018-09-25T04:19:14.001Z,13.00
2018-09-25T04:21:47.729Z,13.00
2018-09-25T04:24:21.404Z,13.00
2018-09-25T04:26:55.165Z,13.00
2018-09-25T04:29:29.022Z,13.00
2018-09-25T04:32:02.953Z,13.00
2018-09-25T04:34:36.681Z,13.00
2018-09-25T04:37:10.455Z,12.90
2018-09-25T04:39:43.960Z,12.90
2018-09-25T04:42:17.713Z,12.90
2018-09-25T04:44:51.417Z,12.90
2018-09-25T04:47:24.916Z,12.90
2018-09-25T04:49:58.625Z,12.90
2018-09-25T04:52:32.338Z,12.90
2018-09-25T04:55:05.939Z,12.80
2018-09-25T04:57:39.676Z,12.80
2018-09-25T05:00:13.417Z,12.80
2018-09-25T05:02:47.088Z,12.80
2018-09-25T05:05:20.725Z,12.80
2018-09-25T05:07:54.394Z,12.80
2018-09-25T05:10:27.904Z,12.70
2018-09-25T05:13:01.630Z,12.70
2018-09-25T05:15:35.402Z,12.70
2018-09-25T05:18:09.244Z,12.70
2018-09-25T05:20:42.769Z,12.70
2018-09-25T05:23:16.549Z,12.70
2018-09-25T05:25:50.213Z,12.70
2018-09-25T05:28:23.979Z,12.70
2018-09-25T05:30:57.770Z,12.70
2018-09-25T05:33:31.449Z,12.70
2018-09-25T05:36:05.184Z,12.60
2018-09-25T05:38:38.914Z,12.60
2018-09-25T05:41:12.713Z,12.60
2018-09-25T05:43:46.419Z,12.60
2018-09-25T05:46:20.177Z,12.60
2018-09-25T05:48:53.956Z,12.60
2018-09-25T05:51:27.549Z,12.60
2018-09-25T05:54:01.218Z,12.60
2018-09-25T05:56:34.929Z,12.60
2018-09-25T05:59:08.629Z,12.60
2018-09-25T06:01:42.356Z,12.60
2018-09-25T06:04:16.073Z,12.60
2018-09-25T06:06:49.824Z,12.70
2018-09-25T06:09:23.619Z,12.60
2018-09-25T06:11:57.300Z,12.60
2018-09-25T06:14:30.978Z,12.60
2018-09-25T06:17:04.805Z,12.60
2018-09-25T06:19:38.582Z,12.70
2018-09-25T06:22:12.379Z,12.70
2018-09-25T06:24:46.141Z,12.80
2018-09-25T06:27:19.831Z,12.90
2018-09-25T06:29:53.556Z,12.90
2018-09-25T06:32:27.277Z,13.00
2018-09-25T06:35:01.057Z,13.10
2018-09-25T06:37:34.601Z,13.20
2018-09-25T06:40:08.229Z,13.30
2018-09-25T06:42:41.953Z,13.40
2018-09-25T06:45:15.625Z,13.50
2018-09-25T06:47:49.237Z,13.50
2018-09-25T06:50:22.965Z,13.50
2018-09-25T06:52:56.549Z,13.50
2018-09-25T06:55:30.211Z,13.50
2018-09-25T06:58:03.889Z,13.50
2018-09-25T07:00:37.644Z,13.40
2018-09-25T07:03:11.324Z,13.30
2018-09-25T07:05:44.952Z,13.40
2018-09-25T07:08:25.611Z,13.40
2018-09-25T07:10:59.275Z,13.30
2018-09-25T07:13:32.933Z,13.40
2018-09-25T07:16:06.568Z,13.40
2018-09-25T07:18:40.273Z,13.40
2018-09-25T07:21:14.064Z,13.40
2018-09-25T07:23:47.793Z,13.50
2018-09-25T07:26:21.492Z,13.60
2018-09-25T07:28:55.085Z,13.50
2018-09-25T07:31:28.820Z,13.60
2018-09-25T07:34:02.617Z,13.60
2018-09-25T07:36:36.346Z,13.70
2018-09-25T07:39:11.396Z,13.70
2018-09-25T07:41:45.048Z,13.70
2018-09-25T07:44:18.868Z,13.70
2018-09-25T07:46:52.462Z,13.70
2018-09-25T07:49:26.050Z,13.80
2018-09-25T07:51:59.777Z,13.90
2018-09-25T07:54:33.691Z,14.00
2018-09-25T07:57:07.933Z,14.10
2018-09-25T07:59:41.836Z,14.10
2018-09-25T08:02:16.216Z,14.20
2018-09-25T08:04:50.540Z,14.30
2018-09-25T08:07:24.398Z,14.30
2018-09-25T08:09:58.132Z,14.40
2018-09-25T08:12:31.812Z,14.40
2018-09-25T08:15:05.556Z,14.40
2018-09-25T08:17:39.260Z,14.50
2018-09-25T08:20:12.915Z,14.50
2018-09-25T08:22:46.541Z,14.60
2018-09-25T08:25:20.226Z,14.60
2018-09-25T08:27:53.853Z,14.70
2018-09-25T08:30:27.533Z,14.70
2018-09-25T08:33:01.231Z,14.80
2018-09-25T08:35:34.996Z,14.90
2018-09-25T08:38:08.678Z,14.90
2018-09-25T08:40:42.404Z,15.00
2018-09-25T08:43:16.116Z,15.10
2018-09-25T08:45:49.867Z,15.10
2018-09-25T08:48:23.571Z,15.10
2018-09-25T08:50:57.347Z,15.20
2018-09-25T08:53:31.196Z,15.20
2018-09-25T08:56:04.872Z,15.30
2018-09-25T08:58:38.599Z,15.40
2018-09-25T09:01:12.611Z,15.40
2018-09-25T09:03:47.148Z,15.50
2018-09-25T09:06:20.882Z,15.50
2018-09-25T09:08:54.597Z,15.50
2018-09-25T09:11:28.259Z,15.60
2018-09-25T09:14:01.906Z,15.60
2018-09-25T09:16:35.552Z,15.60
2018-09-25T09:19:09.257Z,15.60
2018-09-25T09:21:42.800Z,15.60
2018-09-25T09:24:16.420Z,15.80
2018-09-25T09:26:50.025Z,15.80
2018-09-25T09:29:23.594Z,15.90
2018-09-25T09:31:57.229Z,16.00
2018-09-25T09:34:30.921Z,16.00
2018-09-25T09:37:04.537Z,16.10
2018-09-25T09:39:38.240Z,16.00
2018-09-25T09:42:11.893Z,16.10
2018-09-25T09:44:45.429Z,16.30
2018-09-25T09:47:19.145Z,16.30
2018-09-25T09:49:52.673Z,16.30
2018-09-25T09:52:26.248Z,16.40
2018-09-25T09:54:59.956Z,16.50
2018-09-25T09:57:33.545Z,16.60
2018-09-25T10:00:07.385Z,16.70
2018-09-25T10:02:41.120Z,16.80
2018-09-25T10:05:14.746Z,16.80
2018-09-25T10:07:48.302Z,16.80
2018-09-25T10:10:21.990Z,16.80
2018-09-25T10:12:55.757Z,16.90
2018-09-25T10:15:29.407Z,16.90
2018-09-25T10:18:03.125Z,17.00
2018-09-25T10:20:36.853Z,17.00
2018-09-25T10:23:10.440Z,17.10
2018-09-25T10:25:44.235Z,17.20
2018-09-25T10:28:18.022Z,17.30
2018-09-25T10:30:51.731Z,17.30
2018-09-25T10:33:25.429Z,17.20
2018-09-25T10:35:59.140Z,17.20
2018-09-25T10:38:32.736Z,17.40
2018-09-25T10:41:06.443Z,17.40
2018-09-25T10:43:39.901Z,17.50
2018-09-25T10:46:13.665Z,17.60
2018-09-25T10:48:47.340Z,17.60
2018-09-25T10:51:21.025Z,17.70
2018-09-25T10:53:54.771Z,17.70
2018-09-25T10:56:28.537Z,17.80
2018-09-25T10:59:02.188Z,17.80
2018-09-25T11:01:35.842Z,17.70
2018-09-25T11:04:09.636Z,17.60
2018-09-25T11:06:43.312Z,17.70
2018-09-25T11:09:17.029Z,17.80
2018-09-25T11:11:50.712Z,17.90
2018-09-25T11:14:24.487Z,18.00
2018-09-25T11:16:58.004Z,18.10
2018-09-25T11:19:31.753Z,18.20
2018-09-25T11:22:05.525Z,18.20
2018-09-25T11:24:39.224Z,18.30
2018-09-25T11:27:12.853Z,18.20
2018-09-25T11:29:46.621Z,18.20
2018-09-25T11:32:20.183Z,18.20
2018-09-25T11:34:53.837Z,18.30
2018-09-25T11:37:27.531Z,18.40
2018-09-25T11:40:01.274Z,18.50
2018-09-25T11:42:34.978Z,18.50
2018-09-25T11:45:08.689Z,18.60
2018-09-25T11:47:42.372Z,18.60
2018-09-25T11:50:16.029Z,18.70
2018-09-25T11:52:49.663Z,18.80
2018-09-25T11:55:23.385Z,18.80
2018-09-25T11:57:57.045Z,18.90
2018-09-25T12:00:30.613Z,18.90
2018-09-25T12:03:04.193Z,18.90
2018-09-25T12:05:37.893Z,19.00
2018-09-25T12:08:11.806Z,18.90
2018-09-25T12:10:45.352Z,19.10
2018-09-25T12:13:18.989Z,19.00
2018-09-25T12:15:52.689Z,18.70
2018-09-25T12:18:26.424Z,18.90
2018-09-25T12:21:00.000Z,19.10
2018-09-25T12:23:33.649Z,19.20
2018-09-25T12:26:07.342Z,19.30
2018-09-25T12:28:41.134Z,19.20
2018-09-25T12:31:15.759Z,19.10
2018-09-25T12:33:49.531Z,19.20
2018-09-25T12:36:23.092Z,19.20
2018-09-25T12:38:56.693Z,19.30
2018-09-25T12:41:30.397Z,19.30
2018-09-25T12:44:04.125Z,18.60
2018-09-25T12:46:37.752Z,18.50
2018-09-25T12:49:11.928Z,18.70
2018-09-25T12:51:45.641Z,18.90
2018-09-25T12:54:19.413Z,18.90
2018-09-25T12:56:53.129Z,18.80
2018-09-25T12:59:28.808Z,18.90
2018-09-25T13:02:02.370Z,18.90
2018-09-25T13:04:36.060Z,18.90
2018-09-25T13:07:09.581Z,18.90
2018-09-25T13:09:43.343Z,19.10
2018-09-25T13:12:17.056Z,19.20
2018-09-25T13:14:50.784Z,19.20
2018-09-25T13:17:24.390Z,19.30
2018-09-25T13:19:58.121Z,19.40
2018-09-25T13:22:31.706Z,19.50
2018-09-25T13:25:05.340Z,19.60
2018-09-25T13:27:39.025Z,19.70
2018-09-25T13:30:12.742Z,19.50
2018-09-25T13:32:46.300Z,19.40
2018-09-25T13:35:19.933Z,19.50
2018-09-25T13:37:53.691Z,19.50
2018-09-25T13:40:27.380Z,19.60
2018-09-25T13:43:00.989Z,19.60
2018-09-25T13:45:34.668Z,19.60
2018-09-25T13:48:08.329Z,19.70
2018-09-25T13:50:42.144Z,19.80
2018-09-25T13:53:15.833Z,19.80
2018-09-25T13:55:49.453Z,19.70
2018-09-25T13:58:23.168Z,19.70
2018-09-25T14:00:56.933Z,19.40
2018-09-25T14:03:30.678Z,19.50
2018-09-25T14:06:04.285Z,19.60
2018-09-25T14:08:37.820Z,19.60
2018-09-25T14:11:11.526Z,19.50
2018-09-25T14:13:45.217Z,19.50
2018-09-25T14:16:18.808Z,19.50
2018-09-25T14:18:52.469Z,19.50
2018-09-25T14:21:26.101Z,19.60
2018-09-25T14:23:59.755Z,19.60
2018-09-25T14:26:33.314Z,19.70
2018-09-25T14:29:06.916Z,19.70
2018-09-25T14:31:40.682Z,19.60
2018-09-25T14:34:14.324Z,19.60
2018-09-25T14:36:48.028Z,19.50
2018-09-25T14:39:21.707Z,19.60
2018-09-25T14:41:55.273Z,19.50
2018-09-25T14:44:28.972Z,19.50
2018-09-25T14:47:02.600Z,19.50
2018-09-25T14:49:36.093Z,19.10
2018-09-25T14:52:09.744Z,18.80
2018-09-25T14:54:43.469Z,18.70
2018-09-25T14:57:17.252Z,18.50
2018-09-25T14:59:50.885Z,18.60
2018-09-25T15:02:24.692Z,19.30
2018-09-25T15:04:58.429Z,20.00
2018-09-25T15:07:32.021Z,20.40
2018-09-25T15:10:05.673Z,20.70
2018-09-25T15:12:39.313Z,21.00
2018-09-25T15:15:14.762Z,21.10
2018-09-25T15:17:48.344Z,21.40
2018-09-25T15:20:22.193Z,21.40
2018-09-25T15:22:56.035Z,21.60
2018-09-25T15:25:30.873Z,21.60
2018-09-25T15:28:04.584Z,21.70
2018-09-25T15:30:38.204Z,21.70
2018-09-25T15:33:11.788Z,21.80
2018-09-25T15:35:45.455Z,21.80
2018-09-25T15:38:19.128Z,21.80
2018-09-25T15:40:53.590Z,21.90
2018-09-25T15:43:27.288Z,21.90
2018-09-25T15:46:01.004Z,21.90
2018-09-25T15:48:34.797Z,21.90
2018-09-25T15:51:08.529Z,21.90
2018-09-25T15:53:42.265Z,21.90
2018-09-25T15:56:15.932Z,21.80
2018-09-25T15:58:49.665Z,21.80
2018-09-25T16:01:23.249Z,21.90
2018-09-25T16:03:57.022Z,22.00
2018-09-25T16:06:30.725Z,21.90
2018-09-25T16:09:04.301Z,21.80
2018-09-25T16:11:37.980Z,21.80
2018-09-25T16:14:11.761Z,21.70
2018-09-25T16:16:45.310Z,21.50
2018-09-25T16:19:19.096Z,21.40
2018-09-25T16:21:52.919Z,21.30
2018-09-25T16:24:26.601Z,21.30
2018-09-25T16:27:00.362Z,21.30
2018-09-25T16:29:34.176Z,21.20
2018-09-25T16:32:08.717Z,21.20
2018-09-25T16:34:42.521Z,21.30
2018-09-25T16:37:16.121Z,21.30
2018-09-25T16:39:49.776Z,21.30
2018-09-25T16:42:23.765Z,21.20
2018-09-25T16:44:57.477Z,21.20
2018-09-25T16:47:31.489Z,21.10
2018-09-25T16:50:05.169Z,21.10
2018-09-25T16:52:38.909Z,21.10
2018-09-25T16:55:12.765Z,21.00
2018-09-25T16:57:46.565Z,21.00
2018-09-25T17:00:20.258Z,21.00
2018-09-25T17:02:54.029Z,20.90
2018-09-25T17:05:30.454Z,20.90
2018-09-25T17:08:04.133Z,20.90
2018-09-25T17:10:37.812Z,20.80
2018-09-25T17:13:11.474Z,20.80
2018-09-25T17:15:45.246Z,20.70
2018-09-25T17:18:19.273Z,20.70
2018-09-25T17:20:57.533Z,20.70
2018-09-25T17:23:31.116Z,20.60
2018-09-25T17:26:04.708Z,20.60
2018-09-25T17:28:38.312Z,20.50
2018-09-25T17:31:11.953Z,20.50
2018-09-25T17:33:45.509Z,20.40
2018-09-25T17:36:19.098Z,20.40
2018-09-25T17:38:52.720Z,20.40
2018-09-25T17:41:26.505Z,20.40
2018-09-25T17:44:00.032Z,20.20
2018-09-25T17:46:33.637Z,20.20
2018-09-25T17:49:07.434Z,20.20
2018-09-25T17:51:41.121Z,20.20
2018-09-25T17:54:14.813Z,20.20
2018-09-25T17:56:48.359Z,20.20
2018-09-25T17:59:22.096Z,20.20
2018-09-25T18:01:55.808Z,20.00
2018-09-25T18:04:29.401Z,20.00
2018-09-25T18:07:03.265Z,20.00
2018-09-25T18:09:36.756Z,19.90
2018-09-25T18:12:10.395Z,19.90
2018-09-25T18:14:44.115Z,19.90
2018-09-25T18:17:17.836Z,19.80
2018-09-25T18:19:51.559Z,19.80
2018-09-25T18:22:25.245Z,19.80
2018-09-25T18:24:58.777Z,19.80
2018-09-25T18:27:32.806Z,19.80
2018-09-25T18:30:06.677Z,19.80
2018-09-25T18:32:40.921Z,19.80
2018-09-25T18:35:14.741Z,19.70
2018-09-25T18:37:48.624Z,19.70
2018-09-25T18:40:22.410Z,19.60
2018-09-25T18:42:56.212Z,19.50
2018-09-25T18:45:29.740Z,19.50
2018-09-25T18:48:03.624Z,19.40
2018-09-25T18:50:37.380Z,19.40
2018-09-25T18:53:11.001Z,19.40
2018-09-25T18:55:44.615Z,19.30
2018-09-25T18:58:18.209Z,19.30
2018-09-25T19:00:51.913Z,19.30
2018-09-25T19:03:25.656Z,19.30
2018-09-25T19:05:59.343Z,19.20
2018-09-25T19:08:33.188Z,19.20
2018-09-25T19:11:06.600Z,19.10
2018-09-25T19:13:40.150Z,19.10
2018-09-25T19:16:14.061Z,19.10
2018-09-25T19:18:47.772Z,19.10
2018-09-25T19:21:21.493Z,19.00
2018-09-25T19:23:55.142Z,19.00
2018-09-25T19:26:28.775Z,19.00
2018-09-25T19:29:02.368Z,18.90
2018-09-25T19:31:35.945Z,18.90
2018-09-25T19:34:09.532Z,18.90
2018-09-25T19:36:43.320Z,18.80
2018-09-25T19:39:17.037Z,18.80
2018-09-25T19:41:50.700Z,18.80
2018-09-25T19:44:24.326Z,18.80
2018-09-25T19:46:57.955Z,18.70
2018-09-25T19:49:31.675Z,18.70
2018-09-25T19:52:05.453Z,18.70
2018-09-25T19:54:39.199Z,18.60
2018-09-25T19:57:12.953Z,18.60
2018-09-25T19:59:46.659Z,18.60
2018-09-25T20:02:20.376Z,18.60
2018-09-25T20:04:54.045Z,18.50
2018-09-25T20:07:27.700Z,18.50
2018-09-25T20:10:01.383Z,18.50
2018-09-25T20:12:35.047Z,18.40
2018-09-25T20:15:08.734Z,18.40
2018-09-25T20:17:42.330Z,18.40
2018-09-25T20:20:15.985Z,18.30
2018-09-25T20:22:49.574Z,18.30
2018-09-25T20:25:23.124Z,18.30
2018-09-25T20:27:58.752Z,18.20
2018-09-25T20:30:32.432Z,18.20
2018-09-25T20:33:06.115Z,18.20
2018-09-25T20:35:39.809Z,18.20
2018-09-25T20:38:13.512Z,18.10
2018-09-25T20:40:46.903Z,18.10
2018-09-25T20:43:20.712Z,18.10
2018-09-25T20:45:54.452Z,18.00
2018-09-25T20:48:28.228Z,18.00
2018-09-25T20:51:01.945Z,18.00
2018-09-25T20:53:35.535Z,17.90
2018-09-25T20:56:09.290Z,17.90
2018-09-25T20:58:43.006Z,17.90
2018-09-25T21:01:16.682Z,17.80
2018-09-25T21:03:50.361Z,17.80
2018-09-25T21:06:24.553Z,17.80
2018-09-25T21:08:58.144Z,17.80
2018-09-25T21:11:31.827Z,17.70
2018-09-25T21:14:05.441Z,17.70
2018-09-25T21:16:39.295Z,17.70
2018-09-25T21:19:12.952Z,17.70
2018-09-25T21:21:46.512Z,17.60
2018-09-25T21:24:20.308Z,17.60
2018-09-25T21:26:53.912Z,17.50
2018-09-25T21:29:27.377Z,17.50
2018-09-25T21:32:01.020Z,17.50
2018-09-25T21:34:34.721Z,17.50
2018-09-25T21:37:08.404Z,17.50
2018-09-25T21:39:42.129Z,17.40
2018-09-25T21:42:15.636Z,17.40
2018-09-25T21:44:49.216Z,17.30
2018-09-25T21:47:22.956Z,17.30
2018-09-25T21:49:56.686Z,17.30
2018-09-25T21:52:30.362Z,17.30
2018-09-25T21:55:04.097Z,17.20
2018-09-25T21:57:37.808Z,17.20
2018-09-25T22:00:12.229Z,17.20
2018-09-25T22:02:45.849Z,17.20
2018-09-25T22:05:19.576Z,17.10
2018-09-25T22:07:53.333Z,17.10
2018-09-25T22:10:26.926Z,17.10
2018-09-25T22:13:00.738Z,17.10
2018-09-25T22:15:34.440Z,17.00
2018-09-25T22:18:08.228Z,17.00
2018-09-25T22:20:41.794Z,17.00
2018-09-25T22:23:15.554Z,17.00
2018-09-25T22:25:49.280Z,16.90
2018-09-25T22:28:22.720Z,16.90
2018-09-25T22:30:56.402Z,16.80
2018-09-25T22:33:30.174Z,16.80
2018-09-25T22:36:03.864Z,16.80
2018-09-25T22:38:37.607Z,16.80
2018-09-25T22:41:11.544Z,16.70
2018-09-25T22:43:45.314Z,16.70
2018-09-25T22:46:19.029Z,16.70
2018-09-25T22:48:52.755Z,16.70
2018-09-25T22:51:26.489Z,16.60
2018-09-25T22:54:00.159Z,16.60
2018-09-25T22:56:33.877Z,16.60
2018-09-25T22:59:07.501Z,16.50
2018-09-25T23:01:41.321Z,16.50
2018-09-25T23:04:15.054Z,16.50
2018-09-25T23:06:48.757Z,16.50
2018-09-25T23:09:22.514Z,16.40
2018-09-25T23:11:56.180Z,16.40
2018-09-25T23:14:29.884Z,16.40
2018-09-25T23:17:03.415Z,16.40
2018-09-25T23:19:37.170Z,16.30
2018-09-25T23:22:10.909Z,16.30
2018-09-25T23:24:44.578Z,16.30
2018-09-25T23:27:18.308Z,16.30
2018-09-25T23:29:52.013Z,16.20
2018-09-25T23:32:25.605Z,16.20
2018-09-25T23:34:59.250Z,16.20
2018-09-25T23:37:32.905Z,16.10
2018-09-25T23:40:12.354Z,16.10
2018-09-25T23:42:45.881Z,16.10
2018-09-25T23:45:21.484Z,16.10
2018-09-25T23:47:56.693Z,16.10
2018-09-25T23:50:36.885Z,16.10
2018-09-25T23:53:06.027Z,16.00
2018-09-25T23:55:39.388Z,16.00
2018-09-25T23:58:21.068Z,16.00
